Time;durP1;ratioP1;P1;durP2;ratioP2;P2;SDS_P1;SDS_P2;PMS_P1;PMS_P2;Temp;Humidity;BMP_temperature;BMP_pressure;BME280_temperature;BME280_humidity;BME280_pressure;Samples;Min_cycle;Max_cycle;Signal;HPM_P1;HPM_P2
2022/07/21 00:01:31;;;;;;;;;;;;;;;28.04;31.53;100515.25;5401554;32;35303;-66
2022/07/21 00:04:33;;;;;;;;;;;;;;;28.58;30.67;100512.81;5426765;32;34307;-65
2022/07/21 00:07:35;;;;;;;;;;;;;;;27.75;31.71;100520.31;5408546;32;34756;-65
2022/07/21 00:10:36;;;;;;;;;;;;;;;26.53;33.77;100512.63;5428499;32;44891;-70
2022/07/21 00:13:38;;;;;;;;;;;;;;;26.74;33.17;100541.91;5413806;32;35450;-66
2022/07/21 00:16:41;;;;;;;;;;;;;;;26.60;33.73;100537.97;5426184;32;34775;-66
2022/07/21 00:19:43;;;;;;;;;;;;;;;26.82;32.74;100522.22;5414299;32;35745;-66
2022/07/21 00:22:45;;;;;;;;;;;;;;;27.10;33.41;100537.19;5408189;32;34992;-65
2022/07/21 00:25:47;;;;;;;;;;;;;;;26.58;34.84;100537.25;5430342;32;34712;-66
2022/07/21 00:28:49;;;;;;;;;;;;;;;26.32;35.79;100550.69;5421644;32;35395;-65
2022/07/21 00:31:51;;;;;;;;;;;;;;;26.06;36.62;100547.12;5435031;32;35544;-69
2022/07/21 00:34:53;;;;;;;;;;;;;;;26.18;36.36;100552.13;5415735;32;34344;-67
2022/07/21 00:37:55;;;;;;;;;;;;;;;26.00;36.67;100564.75;5419342;32;34381;-70
2022/07/21 00:40:57;;;;;;;;;;;;;;;26.16;35.78;100558.69;5390814;32;35023;-71
2022/07/21 00:43:59;;;;;;;;;;;;;;;26.33;35.55;100562.31;5404550;32;35477;-70
2022/07/21 00:47:01;;;;;;;;;;;;;;;27.05;34.19;100541.34;5436687;32;34421;-66
2022/07/21 00:50:05;;;;;;;;;;;;;;;27.53;33.05;100546.09;5414945;32;34920;-65
2022/07/21 00:53:07;;;;;;;;;;;;;;;27.60;32.91;100551.66;5420361;32;44559;-66
2022/07/21 00:56:10;;;;;;;;;;;;;;;26.90;34.21;100531.19;5413237;32;35308;-71
2022/07/21 00:59:12;;;;;;;;;;;;;;;26.02;35.93;100529.59;5402314;32;34826;-67
2022/07/21 01:02:14;;;;;;;;;;;;;;;26.54;35.15;100541.28;5404860;32;35715;-72
2022/07/21 01:05:17;;;;;;;;;;;;;;;26.82;34.72;100541.94;5414316;32;34489;-67
2022/07/21 01:08:19;;;;;;;;;;;;;;;26.60;35.09;100546.03;5428896;32;35528;-65
2022/07/21 01:11:21;;;;;;;;;;;;;;;26.29;35.68;100547.50;5414008;32;34145;-65
2022/07/21 01:14:23;;;;;;;;;;;;;;;25.85;36.78;100551.00;5418704;32;35009;-64
2022/07/21 01:17:25;;;;;;;;;;;;;;;26.43;35.83;100547.78;5403771;32;34992;-69
2022/07/21 01:20:27;;;;;;;;;;;;;;;25.07;37.66;100550.66;5414156;32;35214;-65
2022/07/21 01:23:29;;;;;;;;;;;;;;;25.21;37.10;100535.84;5404439;32;35064;-69
2022/07/21 01:26:31;;;;;;;;;;;;;;;25.44;36.46;100535.41;5401218;32;34694;-65
2022/07/21 01:29:32;;;;;;;;;;;;;;;26.02;35.32;100540.34;5428080;32;34557;-71
2022/07/21 01:32:35;;;;;;;;;;;;;;;26.37;34.73;100551.06;5416124;32;34396;-70
2022/07/21 01:35:37;;;;;;;;;;;;;;;25.64;36.01;100542.37;5429479;32;46566;-64
2022/07/21 01:41:59;;;;;;;;;;;;;;;26.19;34.87;100540.34;5416921;32;35461;-69
2022/07/21 01:45:01;;;;;;;;;;;;;;;26.04;35.23;100543.75;5441848;32;35396;-70
2022/07/21 01:48:04;;;;;;;;;;;;;;;25.33;37.03;100550.78;5404898;32;35345;-71
2022/07/21 01:51:06;;;;;;;;;;;;;;;25.23;37.93;100555.37;5432762;32;44577;-70
2022/07/21 01:54:08;;;;;;;;;;;;;;;25.30;38.54;100552.91;5409729;32;35337;-64
2022/07/21 01:57:10;;;;;;;;;;;;;;;25.38;37.96;100542.28;5426045;32;34662;-69
2022/07/21 02:00:12;;;;;;;;;;;;;;;26.51;35.97;100540.75;5397698;32;34791;-72
2022/07/21 02:03:14;;;;;;;;;;;;;;;26.44;35.87;100554.00;5408151;32;35425;-65
2022/07/21 02:06:16;;;;;;;;;;;;;;;26.19;36.28;100548.41;5429784;32;35121;-70
2022/07/21 02:09:18;;;;;;;;;;;;;;;26.17;36.32;100550.44;5414630;32;35310;-70
2022/07/21 02:12:20;;;;;;;;;;;;;;;25.88;36.46;100533.69;5430468;32;35559;-70
2022/07/21 02:15:22;;;;;;;;;;;;;;;25.59;36.59;100548.19;5425347;32;34703;-70
2022/07/21 02:18:24;;;;;;;;;;;;;;;25.14;37.78;100556.28;5412049;32;34833;-71
2022/07/21 02:21:25;;;;;;;;;;;;;;;25.81;36.45;100544.22;5423686;32;34949;-66
2022/07/21 02:24:27;;;;;;;;;;;;;;;26.08;35.92;100545.13;5400924;32;35098;-66
2022/07/21 02:27:29;;;;;;;;;;;;;;;26.14;35.65;100544.50;5423507;32;34422;-69
2022/07/21 02:30:31;;;;;;;;;;;;;;;25.79;36.30;100548.94;5416089;32;35042;-71
2022/07/21 02:33:33;;;;;;;;;;;;;;;26.31;35.19;100540.94;5425052;32;35135;-72
2022/07/21 02:36:35;;;;;;;;;;;;;;;25.77;36.31;100550.09;5412089;32;47470;-65
2022/07/21 02:39:37;;;;;;;;;;;;;;;25.15;37.87;100555.28;5427098;32;35581;-70
2022/07/21 02:42:39;;;;;;;;;;;;;;;24.73;39.01;100558.44;5414795;32;36127;-64
2022/07/21 02:45:41;;;;;;;;;;;;;;;24.96;38.71;100555.34;5416578;32;34196;-70
2022/07/21 02:48:43;;;;;;;;;;;;;;;25.26;38.15;100555.09;5429390;32;35201;-65
2022/07/21 02:51:45;;;;;;;;;;;;;;;25.96;36.91;100557.16;5415177;32;34665;-70
2022/07/21 02:54:47;;;;;;;;;;;;;;;25.87;36.83;100557.06;5432516;32;34706;-65
2022/07/21 02:57:49;;;;;;;;;;;;;;;25.69;37.39;100558.03;5406395;32;34808;-70
2022/07/21 03:00:52;;;;;;;;;;;;;;;25.54;37.81;100568.50;5408172;32;34559;-72
2022/07/21 03:03:54;;;;;;;;;;;;;;;25.78;37.16;100547.25;5413269;32;34781;-68
2022/07/21 03:06:56;;;;;;;;;;;;;;;25.49;38.13;100560.88;5409525;32;35512;-69
2022/07/21 03:09:58;;;;;;;;;;;;;;;26.03;37.15;100553.69;5433382;32;34370;-64
2022/07/21 03:13:00;;;;;;;;;;;;;;;26.18;36.99;100553.97;5398581;32;35123;-68
2022/07/21 03:16:02;;;;;;;;;;;;;;;25.71;37.98;100556.06;5429941;32;34137;-65
2022/07/21 03:19:04;;;;;;;;;;;;;;;25.19;39.25;100564.75;5413990;32;34390;-65
2022/07/21 03:22:13;;;;;;;;;;;;;;;25.58;38.54;100554.59;5421785;32;45459;-66
2022/07/21 03:25:16;;;;;;;;;;;;;;;25.38;38.90;100553.88;5421619;32;35526;-69
2022/07/21 03:28:18;;;;;;;;;;;;;;;25.38;39.51;100547.66;5419370;32;34582;-69
2022/07/21 03:31:20;;;;;;;;;;;;;;;25.52;38.97;100548.97;5427947;32;35033;-70
2022/07/21 03:34:22;;;;;;;;;;;;;;;24.87;40.42;100561.63;5407970;32;34930;-71
2022/07/21 03:37:24;;;;;;;;;;;;;;;25.12;39.68;100556.44;5422528;32;35688;-64
2022/07/21 03:40:27;;;;;;;;;;;;;;;25.02;40.43;100555.59;5411708;32;34697;-65
2022/07/21 03:43:29;;;;;;;;;;;;;;;26.20;37.37;100554.66;5412602;32;34173;-65
2022/07/21 03:46:31;;;;;;;;;;;;;;;25.11;40.08;100567.31;5419812;32;35068;-70
2022/07/21 03:49:33;;;;;;;;;;;;;;;25.60;39.16;100557.97;5410579;32;34414;-65
2022/07/21 03:52:35;;;;;;;;;;;;;;;25.47;39.05;100565.56;5428020;32;45729;-69
2022/07/21 03:55:37;;;;;;;;;;;;;;;25.43;39.29;100560.62;5415825;32;34819;-64
2022/07/21 03:58:39;;;;;;;;;;;;;;;25.96;37.41;100557.16;5417750;32;34994;-65
2022/07/21 04:01:41;;;;;;;;;;;;;;;24.98;39.90;100581.06;5389212;32;34789;-69
2022/07/21 04:04:43;;;;;;;;;;;;;;;25.95;38.08;100577.84;5423110;32;35128;-71
2022/07/21 04:07:45;;;;;;;;;;;;;;;26.30;37.36;100573.41;5420093;32;36909;-64
2022/07/21 04:10:47;;;;;;;;;;;;;;;26.40;37.07;100577.72;5416197;32;35617;-70
2022/07/21 04:13:49;;;;;;;;;;;;;;;24.96;40.08;100583.06;5428799;32;34639;-70
2022/07/21 04:16:51;;;;;;;;;;;;;;;25.57;37.76;100574.44;5412162;32;36044;-69
2022/07/21 04:19:53;;;;;;;;;;;;;;;26.37;37.12;100582.56;5427530;32;34373;-71
2022/07/21 04:22:58;;;;;;;;;;;;;;;26.12;37.11;100581.53;5412024;32;36545;-70
2022/07/21 04:26:00;;;;;;;;;;;;;;;26.63;35.82;100583.44;5408075;32;34246;-69
2022/07/21 04:29:02;;;;;;;;;;;;;;;25.38;37.90;100586.16;5416886;32;34989;-65
2022/07/21 04:32:04;;;;;;;;;;;;;;;25.55;37.16;100586.31;5411507;32;35325;-65
2022/07/21 04:35:06;;;;;;;;;;;;;;;26.13;35.63;100585.91;5434652;32;46868;-70
2022/07/21 04:38:08;;;;;;;;;;;;;;;26.67;34.38;100587.53;5407686;32;34951;-70
2022/07/21 04:41:10;;;;;;;;;;;;;;;27.57;33.19;100587.09;5432638;32;34774;-71
2022/07/21 04:44:12;;;;;;;;;;;;;;;27.94;32.62;100578.56;5410611;32;34898;-70
2022/07/21 04:47:14;;;;;;;;;;;;;;;28.60;31.58;100569.44;5416106;32;36804;-69
2022/07/21 04:50:17;;;;;;;;;;;;;;;27.61;33.58;100567.69;5425348;32;35438;-65
2022/07/21 04:53:19;;;;;;;;;;;;;;;28.77;31.67;100570.22;5417455;32;35508;-65
2022/07/21 04:56:21;;;;;;;;;;;;;;;28.65;32.09;100577.00;5430989;32;34590;-70
2022/07/21 04:59:23;;;;;;;;;;;;;;;28.53;32.08;100577.41;5401413;32;35637;-65
2022/07/21 05:02:24;;;;;;;;;;;;;;;29.75;30.13;100575.22;5423818;32;35482;-67
2022/07/21 05:05:26;;;;;;;;;;;;;;;30.67;28.46;100576.84;5409002;32;34705;-65
2022/07/21 05:08:28;;;;;;;;;;;;;;;30.48;28.95;100575.47;5416306;32;34563;-64
2022/07/21 05:11:30;;;;;;;;;;;;;;;31.55;27.33;100583.22;5423882;32;35797;-65
2022/07/21 05:14:32;;;;;;;;;;;;;;;30.43;28.70;100580.63;5412033;32;35070;-65
2022/07/21 05:17:34;;;;;;;;;;;;;;;30.24;29.35;100580.28;5422786;32;34956;-65
2022/07/21 05:20:36;;;;;;;;;;;;;;;31.20;27.72;100572.13;5412345;32;47525;-65
2022/07/21 05:23:38;;;;;;;;;;;;;;;31.45;27.66;100588.97;5430809;32;35054;-70
2022/07/21 05:26:40;;;;;;;;;;;;;;;31.26;27.92;100582.28;5411715;32;35662;-70
2022/07/21 05:29:42;;;;;;;;;;;;;;;32.36;26.39;100583.03;5421094;32;36048;-65
2022/07/21 05:32:44;;;;;;;;;;;;;;;33.27;25.31;100587.34;5417671;32;34922;-77
2022/07/21 05:35:49;;;;;;;;;;;;;;;31.67;27.92;100580.84;5407911;32;34499;-83
2022/07/21 05:38:51;;;;;;;;;;;;;;;31.90;27.90;100599.72;5423522;32;34713;-78
2022/07/21 05:41:53;;;;;;;;;;;;;;;32.86;26.56;100590.94;5411764;32;36675;-67
2022/07/21 05:44:56;;;;;;;;;;;;;;;33.63;25.14;100591.72;5428739;32;35624;-75
2022/07/21 05:47:58;;;;;;;;;;;;;;;32.85;26.61;100589.22;5410455;32;34433;-69
2022/07/21 05:51:00;;;;;;;;;;;;;;;33.65;25.64;100587.72;5404493;32;35051;-70
2022/07/21 05:54:02;;;;;;;;;;;;;;;32.91;27.03;100603.09;5428984;32;34504;-71
2022/07/21 05:57:04;;;;;;;;;;;;;;;34.27;24.67;100599.37;5414012;32;35296;-75
2022/07/21 06:00:06;;;;;;;;;;;;;;;34.80;23.85;100596.63;5402739;32;44480;-69
2022/07/21 06:03:08;;;;;;;;;;;;;;;35.70;23.08;100596.72;5413035;32;34353;-74
2022/07/21 06:06:15;;;;;;;;;;;;;;;35.21;23.11;100596.28;5429659;32;34977;-67
2022/07/21 06:09:17;;;;;;;;;;;;;;;34.50;24.29;100598.97;5402662;32;34571;-68
2022/07/21 06:12:19;;;;;;;;;;;;;;;35.59;22.58;100594.69;5418666;32;35370;-71
2022/07/21 06:15:21;;;;;;;;;;;;;;;34.63;23.40;100598.09;5426877;32;35746;-74
2022/07/21 06:18:23;;;;;;;;;;;;;;;35.92;22.50;100587.13;5415713;32;35247;-72
2022/07/21 06:21:25;;;;;;;;;;;;;;;35.44;22.69;100586.78;5426836;32;35450;-70
2022/07/21 06:24:28;;;;;;;;;;;;;;;36.63;20.98;100587.81;5423372;32;37104;-69
2022/07/21 06:27:31;;;;;;;;;;;;;;;37.62;19.51;100586.69;5432648;32;34219;-67
2022/07/21 06:30:36;;;;;;;;;;;;;;;35.20;22.37;100593.78;5415032;32;46664;-72
2022/07/21 06:33:38;;;;;;;;;;;;;;;36.97;19.67;100590.03;5422947;32;34178;-72
2022/07/21 06:36:41;;;;;;;;;;;;;;;35.03;21.85;100582.50;5425591;32;34227;-81
2022/07/21 06:39:43;;;;;;;;;;;;;;;37.04;19.35;100578.97;5419732;32;34323;-69
2022/07/21 06:42:45;;;;;;;;;;;;;;;37.05;19.45;100589.72;5414627;32;35462;-70
2022/07/21 06:46:06;;;;;;;;;;;;;;;38.08;18.70;100583.25;5413194;32;44855;-72
2022/07/21 06:49:09;;;;;;;;;;;;;;;36.34;20.70;100584.72;5427210;32;35599;-73
2022/07/21 06:52:11;;;;;;;;;;;;;;;38.00;18.32;100580.84;5429607;32;33967;-79
2022/07/21 06:55:13;;;;;;;;;;;;;;;36.36;20.03;100585.31;5422019;32;35780;-73
2022/07/21 06:58:20;;;;;;;;;;;;;;;36.28;19.99;100580.13;5422931;32;35761;-73
2022/07/21 07:01:22;;;;;;;;;;;;;;;36.07;20.11;100595.03;5420021;32;37156;-70
2022/07/21 07:04:24;;;;;;;;;;;;;;;37.91;18.14;100579.50;5426974;32;34217;-71
2022/07/21 07:07:26;;;;;;;;;;;;;;;37.22;18.93;100581.69;5422943;32;35371;-66
2022/07/21 07:10:28;;;;;;;;;;;;;;;39.05;16.91;100574.53;5412431;32;34394;-62
2022/07/21 07:13:30;;;;;;;;;;;;;;;39.54;16.34;100583.22;5430424;32;34529;-70
2022/07/21 07:16:52;;;;;;;;;;;;;;;37.03;18.99;100580.03;5407156;32;34672;-69
2022/07/21 07:19:54;;;;;;;;;;;;;;;37.61;18.49;100584.97;5431960;32;34774;-72
2022/07/21 07:22:56;;;;;;;;;;;;;;;40.25;15.92;100584.50;5419782;32;34297;-69
2022/07/21 07:25:58;;;;;;;;;;;;;;;39.59;16.14;100580.56;5430552;32;34368;-68
2022/07/21 07:29:00;;;;;;;;;;;;;;;38.49;17.35;100584.25;5387632;32;904723;-69
2022/07/21 07:32:02;;;;;;;;;;;;;;;38.88;17.19;100577.19;5410024;32;34697;-70
2022/07/21 07:35:04;;;;;;;;;;;;;;;38.58;17.68;100582.84;5425440;32;34916;-69
2022/07/21 07:38:06;;;;;;;;;;;;;;;40.78;15.31;100568.53;5422008;32;44336;-71
2022/07/21 07:41:08;;;;;;;;;;;;;;;40.39;15.68;100560.25;5415682;32;35784;-67
2022/07/21 07:44:10;;;;;;;;;;;;;;;38.10;18.25;100575.59;5394168;32;36221;-73
2022/07/21 07:47:12;;;;;;;;;;;;;;;41.83;14.35;100564.53;5429140;32;34292;-70
2022/07/21 07:50:14;;;;;;;;;;;;;;;40.27;15.85;100565.00;5406129;32;34311;-74
2022/07/21 07:53:16;;;;;;;;;;;;;;;39.30;16.60;100570.66;5403145;32;34424;-68
2022/07/21 07:56:18;;;;;;;;;;;;;;;40.20;15.97;100569.88;5431555;32;34595;-72
2022/07/21 07:59:20;;;;;;;;;;;;;;;37.73;18.27;100568.56;5386771;32;34784;-74
2022/07/21 08:02:22;;;;;;;;;;;;;;;38.52;17.48;100564.56;5426889;32;34199;-71
2022/07/21 08:05:24;;;;;;;;;;;;;;;39.92;16.31;100562.47;5409029;32;34289;-69
2022/07/21 08:08:26;;;;;;;;;;;;;;;41.99;14.14;100559.16;5403697;32;34390;-73
2022/07/21 08:11:28;;;;;;;;;;;;;;;38.68;17.21;100560.25;5419422;32;34371;-67
2022/07/21 08:14:30;;;;;;;;;;;;;;;39.22;16.77;100559.00;5418145;32;34524;-69
2022/07/21 08:17:32;;;;;;;;;;;;;;;39.50;17.11;100563.66;5416207;32;34271;-70
2022/07/21 08:20:34;;;;;;;;;;;;;;;40.67;15.80;100552.94;5418662;32;34209;-69
2022/07/21 08:23:36;;;;;;;;;;;;;;;39.52;16.00;100555.97;5433283;32;44609;-71
2022/07/21 08:26:38;;;;;;;;;;;;;;;42.90;13.07;100547.91;5416220;32;34054;-71
2022/07/21 08:29:41;;;;;;;;;;;;;;;42.04;13.67;100539.88;5418984;32;34819;-71
2022/07/21 08:32:42;;;;;;;;;;;;;;;41.82;14.06;100549.09;5414060;32;35183;-70
2022/07/21 08:35:44;;;;;;;;;;;;;;;42.23;13.58;100546.66;5397337;32;36460;-71
2022/07/21 08:38:47;;;;;;;;;;;;;;;41.56;14.14;100555.44;5429670;32;34487;-69
2022/07/21 08:41:49;;;;;;;;;;;;;;;41.96;13.71;100543.97;5420740;32;35070;-74
2022/07/21 08:44:52;;;;;;;;;;;;;;;40.77;14.83;100531.03;5432786;32;34381;-70
2022/07/21 08:47:55;;;;;;;;;;;;;;;43.36;12.55;100529.53;5411463;32;35035;-70
2022/07/21 08:50:57;;;;;;;;;;;;;;;43.53;12.26;100537.59;5420152;32;34057;-69
2022/07/21 08:53:59;;;;;;;;;;;;;;;43.40;12.37;100536.19;5421043;32;37434;-69
2022/07/21 08:57:01;;;;;;;;;;;;;;;40.40;14.90;100530.78;5420869;32;35345;-71
2022/07/21 09:00:06;;;;;;;;;;;;;;;40.21;15.08;100528.31;5413594;32;34868;-77
2022/07/21 09:03:11;;;;;;;;;;;;;;;40.98;14.59;100524.72;5417102;32;44564;-73
2022/07/21 09:06:15;;;;;;;;;;;;;;;42.69;13.06;100520.16;5429470;32;34284;-76
2022/07/21 09:09:18;;;;;;;;;;;;;;;42.88;13.12;100514.97;5405228;32;35869;-73
2022/07/21 09:12:20;;;;;;;;;;;;;;;43.27;12.59;100520.09;5413573;32;34239;-76
2022/07/21 09:15:24;;;;;;;;;;;;;;;43.28;12.57;100518.16;5404014;32;34289;-69
2022/07/21 09:18:26;;;;;;;;;;;;;;;41.25;14.32;100510.97;5402957;32;34377;-74
2022/07/21 09:21:28;;;;;;;;;;;;;;;41.48;13.95;100515.37;5427566;32;34100;-75
2022/07/21 09:24:37;;;;;;;;;;;;;;;41.56;13.75;100508.53;5420108;32;34407;-75
2022/07/21 09:27:42;;;;;;;;;;;;;;;43.34;12.32;100497.72;5435378;32;44639;-73
2022/07/21 09:30:47;;;;;;;;;;;;;;;43.10;12.51;100489.13;5421434;32;34287;-77
2022/07/21 09:33:49;;;;;;;;;;;;;;;42.11;13.20;100493.53;5418041;32;35645;-73
2022/07/21 09:36:55;;;;;;;;;;;;;;;42.45;13.02;100492.13;5436409;32;36197;-74
2022/07/21 09:39:59;;;;;;;;;;;;;;;41.10;14.05;100495.09;5401256;32;35426;-69
2022/07/21 09:43:01;;;;;;;;;;;;;;;42.88;12.84;100490.09;5431904;32;35046;-68
2022/07/21 09:46:03;;;;;;;;;;;;;;;42.94;12.60;100486.25;5413313;32;34144;-67
2022/07/21 09:49:06;;;;;;;;;;;;;;;42.03;13.29;100483.81;5427439;32;36355;-79
2022/07/21 09:52:31;;;;;;;;;;;;;;;43.97;11.84;100479.78;5416951;32;35858;-82
2022/07/21 09:55:34;;;;;;;;;;;;;;;42.96;12.44;100469.38;5407346;32;35059;-88
2022/07/21 09:58:36;;;;;;;;;;;;;;;42.85;12.51;100464.97;5420904;32;43309;-73
2022/07/21 10:01:40;;;;;;;;;;;;;;;41.96;13.25;100460.31;5406152;32;34351;-69
2022/07/21 10:04:42;;;;;;;;;;;;;;;40.85;14.26;100469.97;5431725;32;34306;-72
2022/07/21 10:08:05;;;;;;;;;;;;;;;44.48;11.16;100446.41;5412987;32;35876;-75
2022/07/21 10:11:09;;;;;;;;;;;;;;;42.77;12.66;100452.50;5417379;32;44661;-68
2022/07/21 10:14:19;;;;;;;;;;;;;;;42.93;12.54;100451.44;5434788;32;35446;-71
2022/07/21 10:17:22;;;;;;;;;;;;;;;45.43;10.56;100456.47;5402788;32;34228;-68
2022/07/21 10:20:28;;;;;;;;;;;;;;;43.71;11.97;100454.03;5432546;32;34345;-71
2022/07/21 10:23:41;;;;;;;;;;;;;;;46.67;9.77;100435.47;5406452;32;34241;-73
2022/07/21 10:27:19;;;;;;;;;;;;;;;43.67;11.96;100452.09;5405727;32;44609;-71
2022/07/21 10:30:34;;;;;;;;;;;;;;;45.26;10.71;100436.59;5370626;32;35267;-70
2022/07/21 10:33:45;;;;;;;;;;;;;;;44.40;11.26;100435.09;5401872;32;44569;-71
2022/07/21 10:36:47;;;;;;;;;;;;;;;42.86;12.56;100447.28;5431065;32;35910;-70
2022/07/21 10:39:49;;;;;;;;;;;;;;;44.12;11.52;100436.53;5418531;32;34835;-74
2022/07/21 10:42:57;;;;;;;;;;;;;;;43.96;11.60;100424.69;5417526;32;35530;-71
2022/07/21 10:45:59;;;;;;;;;;;;;;;47.74;8.92;100425.47;5431224;32;34125;-71
2022/07/21 10:49:02;;;;;;;;;;;;;;;48.10;8.78;100425.62;5415958;32;34120;-71
2022/07/21 10:52:04;;;;;;;;;;;;;;;47.06;9.20;100426.84;5434676;32;35957;-71
2022/07/21 10:55:28;;;;;;;;;;;;;;;43.08;12.10;100427.72;5419199;32;44571;-70
2022/07/21 10:58:39;;;;;;;;;;;;;;;44.76;10.99;100419.16;5413313;32;35010;-67
2022/07/21 11:01:41;;;;;;;;;;;;;;;48.55;8.29;100411.88;5424200;32;44666;-72
2022/07/21 11:05:02;;;;;;;;;;;;;;;44.09;11.22;100409.44;5416576;32;34298;-73
2022/07/21 11:08:18;;;;;;;;;;;;;;;44.15;11.37;100409.13;5438028;32;34264;-69
2022/07/21 11:11:27;;;;;;;;;;;;;;;45.72;10.16;100392.66;5417037;32;35358;-71
2022/07/21 11:14:39;;;;;;;;;;;;;;;46.46;9.69;100390.41;5416599;32;35295;-70
2022/07/21 11:17:43;;;;;;;;;;;;;;;45.46;10.33;100389.28;5431286;32;44570;-70
2022/07/21 11:21:00;;;;;;;;;;;;;;;49.06;7.86;100377.25;5404445;32;34405;-71
2022/07/21 11:24:02;;;;;;;;;;;;;;;46.15;9.97;100382.47;5425811;32;34392;-65
2022/07/21 11:27:08;;;;;;;;;;;;;;;45.25;10.06;100382.22;5420271;32;34374;-69
2022/07/21 11:30:10;;;;;;;;;;;;;;;46.37;9.77;100365.22;5424909;32;44488;-71
2022/07/21 11:33:20;;;;;;;;;;;;;;;50.08;7.33;100357.75;5427113;32;36971;-70
2022/07/21 11:36:23;;;;;;;;;;;;;;;45.60;10.24;100367.19;5427431;32;34458;-72
2022/07/21 11:39:25;;;;;;;;;;;;;;;46.42;9.58;100361.56;5424464;32;36370;-74
2022/07/21 11:42:27;;;;;;;;;;;;;;;47.79;8.55;100360.47;5420511;32;34804;-83
2022/07/21 11:45:30;;;;;;;;;;;;;;;47.82;8.58;100340.38;5429696;32;36567;-71
2022/07/21 11:48:32;;;;;;;;;;;;;;;50.30;6.80;100349.28;5420860;32;34000;-69
2022/07/21 11:51:34;;;;;;;;;;;;;;;49.68;7.10;100351.38;5421975;32;34651;-69
2022/07/21 11:54:36;;;;;;;;;;;;;;;50.52;6.33;100336.34;5427499;32;44605;-74
2022/07/21 11:57:45;;;;;;;;;;;;;;;44.93;10.19;100343.91;5417618;32;35735;-72
2022/07/21 12:00:47;;;;;;;;;;;;;;;44.71;9.96;100344.38;5409071;32;34340;-70
2022/07/21 12:03:50;;;;;;;;;;;;;;;47.27;8.20;100340.28;5401318;32;37566;-70
2022/07/21 12:06:52;;;;;;;;;;;;;;;46.35;9.11;100338.87;5431517;32;34287;-73
2022/07/21 12:09:56;;;;;;;;;;;;;;;46.69;8.66;100336.72;5418534;32;35485;-67
2022/07/21 12:13:04;;;;;;;;;;;;;;;46.45;8.86;100335.97;5420179;32;35323;-69
2022/07/21 12:16:06;;;;;;;;;;;;;;;45.60;9.52;100329.22;5425348;32;44399;-70
2022/07/21 12:19:12;;;;;;;;;;;;;;;48.28;7.87;100324.34;5415220;32;34747;-73
2022/07/21 12:22:14;;;;;;;;;;;;;;;46.96;8.62;100319.38;5433631;32;35659;-68
2022/07/21 12:25:17;;;;;;;;;;;;;;;46.50;8.84;100324.78;5417579;32;35881;-73
2022/07/21 12:28:19;;;;;;;;;;;;;;;43.25;10.97;100329.56;5428682;32;33411;-71
2022/07/21 12:31:23;;;;;;;;;;;;;;;42.58;11.49;100316.78;5427496;32;34223;-70
2022/07/21 12:34:26;;;;;;;;;;;;;;;42.59;11.65;100323.97;5405272;32;34588;-75
2022/07/21 12:37:58;;;;;;;;;;;;;;;41.30;12.65;100311.66;5431488;32;34452;-67
2022/07/21 12:41:00;;;;;;;;;;;;;;;42.14;12.33;100319.09;5407078;32;34358;-72
2022/07/21 12:44:22;;;;;;;;;;;;;;;40.82;13.38;100319.75;5427203;32;34549;-69
2022/07/21 12:47:24;;;;;;;;;;;;;;;41.09;13.14;100310.66;5417055;32;35430;-69
2022/07/21 12:50:26;;;;;;;;;;;;;;;40.73;13.19;100312.25;5405569;32;35327;-68
2022/07/21 12:53:29;;;;;;;;;;;;;;;41.51;12.09;100294.19;5435403;32;34352;-70
2022/07/21 12:56:32;;;;;;;;;;;;;;;41.32;12.56;100287.44;5420431;32;34111;-82
2022/07/21 12:59:35;;;;;;;;;;;;;;;41.17;12.96;100296.41;5416698;32;34993;-77
2022/07/21 13:02:46;;;;;;;;;;;;;;;40.70;13.01;100294.31;5401483;32;44546;-76
2022/07/21 13:05:48;;;;;;;;;;;;;;;39.25;14.29;100289.13;5420709;32;35621;-69
2022/07/21 13:08:50;;;;;;;;;;;;;;;40.15;13.87;100284.34;5434957;32;34390;-69
2022/07/21 13:11:53;;;;;;;;;;;;;;;39.66;14.16;100278.72;5421800;32;34393;-74
2022/07/21 13:14:55;;;;;;;;;;;;;;;40.02;13.94;100279.19;5432470;32;35401;-74
2022/07/21 13:17:57;;;;;;;;;;;;;;;39.86;13.91;100280.91;5423777;32;35612;-72
2022/07/21 13:20:59;;;;;;;;;;;;;;;39.27;14.15;100284.19;5423385;32;35554;-74
2022/07/21 13:24:00;;;;;;;;;;;;;;;39.67;13.69;100274.06;5422656;32;35372;-78
2022/07/21 13:27:02;;;;;;;;;;;;;;;39.79;13.63;100278.34;5409623;32;35294;-72
2022/07/21 13:30:05;;;;;;;;;;;;;;;38.32;14.74;100284.97;5434753;32;34997;-84
2022/07/21 13:33:08;;;;;;;;;;;;;;;39.10;14.07;100264.13;5404850;32;44521;-74
2022/07/21 13:36:10;;;;;;;;;;;;;;;40.19;13.49;100270.87;5416915;32;35808;-76
2022/07/21 13:39:15;;;;;;;;;;;;;;;39.15;13.92;100264.19;5410361;32;34542;-71
2022/07/21 13:42:37;;;;;;;;;;;;;;;39.13;14.26;100260.84;5431188;32;44890;-80
2022/07/21 13:45:58;;;;;;;;;;;;;;;40.14;13.31;100260.66;5421374;32;36483;-71
2022/07/21 13:49:00;;;;;;;;;;;;;;;39.64;15.71;100252.56;5419245;32;34433;-73
2022/07/21 13:52:02;;;;;;;;;;;;;;;39.95;13.90;100253.81;5436703;32;35329;-80
2022/07/21 13:55:05;;;;;;;;;;;;;;;40.11;12.97;100257.59;5418933;32;34256;-74
2022/07/21 13:58:08;;;;;;;;;;;;;;;38.99;13.94;100267.78;5418554;32;44811;-75
2022/07/21 14:01:10;;;;;;;;;;;;;;;39.12;13.75;100253.69;5399717;32;36280;-77
2022/07/21 14:04:12;;;;;;;;;;;;;;;40.51;12.68;100248.94;5409945;32;34608;-74
2022/07/21 14:07:15;;;;;;;;;;;;;;;40.22;12.90;100249.19;5432442;32;34288;-73
2022/07/21 14:10:17;;;;;;;;;;;;;;;39.04;13.77;100240.37;5413430;32;34216;-73
2022/07/21 14:13:19;;;;;;;;;;;;;;;39.05;13.62;100242.06;5412496;32;33313;-73
2022/07/21 14:16:21;;;;;;;;;;;;;;;39.01;13.50;100244.44;5400657;32;34759;-79
2022/07/21 14:19:23;;;;;;;;;;;;;;;39.73;12.05;100234.53;5441021;32;34943;-78
2022/07/21 14:22:25;;;;;;;;;;;;;;;39.29;12.81;100234.47;5426642;32;34239;-78
2022/07/21 14:25:27;;;;;;;;;;;;;;;38.99;13.00;100230.13;5421368;32;34325;-78
2022/07/21 14:28:29;;;;;;;;;;;;;;;39.44;12.63;100236.59;5414337;32;35576;-74
2022/07/21 14:31:31;;;;;;;;;;;;;;;40.69;11.92;100229.28;5418485;32;34377;-74
2022/07/21 14:34:33;;;;;;;;;;;;;;;40.32;11.95;100230.03;5442957;32;34679;-78
2022/07/21 14:37:36;;;;;;;;;;;;;;;39.89;12.34;100228.16;5409067;32;34574;-78
2022/07/21 14:40:38;;;;;;;;;;;;;;;39.61;12.65;100226.44;5412558;32;35790;-74
2022/07/21 14:43:40;;;;;;;;;;;;;;;39.65;12.44;100221.22;5434319;32;35048;-74
2022/07/21 14:46:42;;;;;;;;;;;;;;;40.39;11.75;100220.75;5419795;32;34241;-73
2022/07/21 14:49:44;;;;;;;;;;;;;;;40.23;12.20;100217.81;5442789;32;35524;-78
2022/07/21 14:52:46;;;;;;;;;;;;;;;38.71;13.15;100222.84;5415477;32;34578;-77
2022/07/21 14:55:48;;;;;;;;;;;;;;;38.58;13.24;100217.63;5431199;32;34460;-74
2022/07/21 14:58:50;;;;;;;;;;;;;;;38.82;12.79;100198.25;5383258;32;34371;-76
2022/07/21 15:01:52;;;;;;;;;;;;;;;38.99;13.20;100215.56;5411143;32;34409;-79
2022/07/21 15:04:54;;;;;;;;;;;;;;;39.65;12.74;100216.56;5408816;32;36099;-78
2022/07/21 15:07:56;;;;;;;;;;;;;;;39.89;12.44;100211.62;5399924;32;35429;-74
2022/07/21 15:10:58;;;;;;;;;;;;;;;40.13;12.18;100206.72;5433719;32;34455;-75
2022/07/21 15:14:00;;;;;;;;;;;;;;;40.67;11.69;100208.62;5407873;32;35623;-77
2022/07/21 15:17:02;;;;;;;;;;;;;;;40.19;12.14;100199.31;5433832;32;35534;-79
2022/07/21 15:20:05;;;;;;;;;;;;;;;39.77;12.68;100198.00;5416155;32;34351;-75
2022/07/21 15:23:13;;;;;;;;;;;;;;;40.00;12.40;100194.16;5432667;32;44733;-77
2022/07/21 15:26:16;;;;;;;;;;;;;;;40.36;12.13;100191.78;5414628;32;34397;-73
2022/07/21 15:29:18;;;;;;;;;;;;;;;39.36;12.94;100191.16;5417293;32;34838;-73
2022/07/21 15:32:20;;;;;;;;;;;;;;;39.73;12.58;100180.34;5434158;32;35804;-79
2022/07/21 15:35:22;;;;;;;;;;;;;;;39.82;12.75;100180.75;5419371;32;33889;-74
2022/07/21 15:38:24;;;;;;;;;;;;;;;40.24;13.10;100180.94;5424814;32;34187;-77
2022/07/21 15:41:26;;;;;;;;;;;;;;;39.77;12.95;100186.19;5403523;32;34431;-73
2022/07/21 15:44:48;;;;;;;;;;;;;;;39.04;13.03;100182.69;5428444;32;34734;-78
2022/07/21 15:47:50;;;;;;;;;;;;;;;39.27;13.31;100178.91;5442662;32;34335;-74